Time;durP1;ratioP1;P1;durP2;ratioP2;P2;SDS_P1;SDS_P2;PMS_P1;PMS_P2;Temp;Humidity;BMP_temperature;BMP_pressure;BME280_temperature;BME280_humidity;BME280_pressure;Samples;Min_cycle;Max_cycle;Signal;HPM_P1;HPM_P2
2023/03/13 00:00:56;;;;;;;16.40;3.13;;;10.50;99.90;;;;;;5073907;28;20210;-50
2023/03/13 00:03:22;;;;;;;16.20;2.80;;;10.60;99.90;;;;;;5073688;28;20177;-51
2023/03/13 00:05:48;;;;;;;12.53;2.83;;;10.60;99.90;;;;;;5073742;28;20179;-51
2023/03/13 00:08:14;;;;;;;9.83;2.27;;;10.60;99.90;;;;;;5073603;28;20533;-49
2023/03/13 00:10:40;;;;;;;14.43;3.07;;;10.60;99.90;;;;;;5073534;28;20202;-49
2023/03/13 00:13:06;;;;;;;14.93;2.30;;;10.50;99.90;;;;;;5073803;28;20210;-49
2023/03/13 00:15:32;;;;;;;17.07;3.00;;;10.50;99.90;;;;;;5073461;28;20205;-50
2023/03/13 00:17:58;;;;;;;11.60;2.17;;;10.50;99.90;;;;;;5073505;28;20183;-50
2023/03/13 00:20:23;;;;;;;8.53;2.60;;;10.50;99.90;;;;;;5073699;28;20558;-51
2023/03/13 00:22:49;;;;;;;13.30;3.73;;;10.40;99.90;;;;;;5073796;28;20178;-49
2023/03/13 00:25:15;;;;;;;16.53;3.10;;;10.40;99.90;;;;;;5073404;28;20529;-48
2023/03/13 00:27:40;;;;;;;11.27;2.80;;;10.40;99.90;;;;;;5073373;28;20577;-49
2023/03/13 00:30:06;;;;;;;13.17;3.20;;;10.40;99.90;;;;;;5073109;28;20198;-50
2023/03/13 00:32:32;;;;;;;17.13;3.37;;;10.40;99.90;;;;;;5073809;28;20232;-51
2023/03/13 00:34:57;;;;;;;14.17;2.60;;;10.40;99.90;;;;;;5073759;28;20201;-49
2023/03/13 00:37:23;;;;;;;9.63;2.37;;;10.30;99.90;;;;;;5073552;28;20178;-50
2023/03/13 00:39:48;;;;;;;13.83;2.40;;;10.40;99.90;;;;;;5073186;28;20593;-49
2023/03/13 00:42:14;;;;;;;14.20;2.73;;;10.40;99.90;;;;;;5073958;28;20175;-51
2023/03/13 00:44:40;;;;;;;12.73;2.83;;;10.40;99.90;;;;;;5073709;28;20186;-51
2023/03/13 00:47:06;;;;;;;10.17;1.47;;;10.40;99.90;;;;;;5073226;28;20653;-51
2023/03/13 00:49:32;;;;;;;13.97;2.27;;;10.40;99.90;;;;;;5073157;28;20185;-49
2023/03/13 00:51:58;;;;;;;11.97;2.53;;;10.50;99.90;;;;;;5072813;28;20735;-49
2023/03/13 00:54:23;;;;;;;10.60;2.33;;;10.50;99.90;;;;;;5073693;28;20198;-50
2023/03/13 00:56:49;;;;;;;12.23;2.27;;;10.50;99.90;;;;;;5073091;28;20201;-49
2023/03/13 00:59:15;;;;;;;8.87;2.70;;;10.50;99.90;;;;;;5073103;28;20175;-50
2023/03/13 01:01:40;;;;;;;19.07;3.00;;;10.50;99.90;;;;;;5073003;28;20245;-51
2023/03/13 01:04:10;;;;;;;12.30;2.57;;;10.50;99.90;;;;;;5073570;28;20177;-49
2023/03/13 01:06:39;;;;;;;18.37;3.30;;;10.50;99.90;;;;;;5073216;28;20182;-51
2023/03/13 01:09:06;;;;;;;17.37;2.23;;;10.60;99.90;;;;;;5073012;28;20237;-50
2023/03/13 01:11:35;;;;;;;13.13;2.10;;;10.50;99.90;;;;;;5072872;28;20198;-49
2023/03/13 01:14:03;;;;;;;9.07;1.87;;;10.60;99.90;;;;;;5072907;28;20344;-51
2023/03/13 01:16:32;;;;;;;6.93;1.60;;;10.60;99.90;;;;;;5073161;28;20175;-51
2023/03/13 01:19:06;;;;;;;11.33;2.37;;;10.60;99.90;;;;;;5073573;28;20208;-48
2023/03/13 01:21:34;;;;;;;11.37;2.00;;;10.70;99.90;;;;;;5073608;28;20202;-48
2023/03/13 01:24:00;;;;;;;9.93;1.93;;;10.70;99.90;;;;;;5074412;28;20190;-52
2023/03/13 01:26:26;;;;;;;12.07;2.07;;;10.70;99.90;;;;;;5073114;28;20190;-53
2023/03/13 01:28:52;;;;;;;14.90;2.17;;;10.60;99.90;;;;;;5073065;28;20635;-51
2023/03/13 01:31:24;;;;;;;9.10;1.80;;;10.60;99.90;;;;;;5072924;28;20205;-46
2023/03/13 01:33:53;;;;;;;6.70;1.83;;;10.60;99.90;;;;;;5073088;28;20229;-47
2023/03/13 01:36:19;;;;;;;9.00;1.63;;;10.60;99.90;;;;;;5072765;28;20194;-45
2023/03/13 01:38:49;;;;;;;10.70;1.70;;;10.50;99.90;;;;;;5073016;28;20650;-46
2023/03/13 01:41:15;;;;;;;6.33;1.97;;;10.50;99.90;;;;;;5073787;28;20256;-46
2023/03/13 01:43:42;;;;;;;8.23;1.60;;;10.50;99.90;;;;;;5076283;28;20712;-46
2023/03/13 01:46:18;;;;;;;8.20;2.03;;;10.50;99.90;;;;;;5076262;28;20226;-46
2023/03/13 01:49:10;;;;;;;7.40;1.60;;;10.50;99.90;;;;;;5076487;28;20189;-48
2023/03/13 01:51:40;;;;;;;7.17;1.57;;;10.50;99.90;;;;;;5076421;28;20569;-43
2023/03/13 01:54:08;;;;;;;6.77;1.77;;;10.50;99.90;;;;;;5075953;28;20308;-46
2023/03/13 01:56:52;;;;;;;10.60;1.70;;;10.50;99.90;;;;;;5076568;28;20178;-47
2023/03/13 01:59:23;;;;;;;4.60;1.60;;;10.40;99.90;;;;;;5076289;28;20171;-48
2023/03/13 02:01:52;;;;;;;6.43;1.70;;;10.50;99.90;;;;;;5076217;28;20190;-47
2023/03/13 02:04:19;;;;;;;6.53;1.80;;;10.40;99.90;;;;;;5076667;28;20179;-47
2023/03/13 02:06:48;;;;;;;5.50;1.30;;;10.50;99.90;;;;;;5076262;28;20178;-47
2023/03/13 02:09:18;;;;;;;6.73;1.57;;;10.50;99.90;;;;;;5076799;28;20182;-45
2023/03/13 02:11:48;;;;;;;4.20;1.30;;;10.50;99.90;;;;;;5076172;28;20645;-45
2023/03/13 02:14:17;;;;;;;4.30;1.27;;;10.50;99.90;;;;;;5075815;28;20651;-45
2023/03/13 02:16:47;;;;;;;3.30;1.53;;;10.50;99.90;;;;;;5075798;28;20190;-46
2023/03/13 02:19:35;;;;;;;3.73;0.80;;;10.50;99.90;;;;;;5075856;28;20174;-45
2023/03/13 02:22:19;;;;;;;3.07;1.10;;;10.50;99.90;;;;;;5076226;28;20221;-47
2023/03/13 02:24:52;;;;;;;2.00;1.00;;;10.50;99.90;;;;;;5076541;28;20163;-47
2023/03/13 02:27:18;;;;;;;2.10;0.80;;;10.50;99.90;;;;;;5075831;28;20158;-48
2023/03/13 02:29:43;;;;;;;2.73;0.90;;;10.50;99.90;;;;;;5075550;28;20225;-48
2023/03/13 02:32:09;;;;;;;3.83;1.00;;;10.50;99.90;;;;;;5075332;28;20206;-45
2023/03/13 02:34:38;;;;;;;2.00;0.73;;;10.50;99.90;;;;;;5075385;28;20210;-46
2023/03/13 02:37:09;;;;;;;1.23;0.53;;;10.60;99.90;;;;;;5075869;28;20539;-44
2023/03/13 02:39:37;;;;;;;2.00;0.70;;;10.70;99.90;;;;;;5075250;28;20174;-48
2023/03/13 02:42:04;;;;;;;0.67;0.40;;;10.70;99.90;;;;;;5075017;28;20568;-45
2023/03/13 02:44:30;;;;;;;0.60;0.43;;;10.80;99.90;;;;;;5075415;28;20190;-45
2023/03/13 02:46:55;;;;;;;1.13;0.60;;;10.80;99.90;;;;;;5075089;28;20178;-45
2023/03/13 02:49:28;;;;;;;0.93;0.40;;;10.80;99.90;;;;;;5075059;28;20180;-45
2023/03/13 02:52:03;;;;;;;1.80;0.60;;;10.90;99.90;;;;;;5074814;28;20281;-48
2023/03/13 02:54:36;;;;;;;2.13;0.87;;;10.90;99.90;;;;;;5075223;28;20187;-46
2023/03/13 02:57:03;;;;;;;1.10;0.70;;;10.90;99.90;;;;;;5075230;28;20377;-47
2023/03/13 02:59:30;;;;;;;4.17;0.77;;;11.00;99.90;;;;;;5075083;28;20182;-46
2023/03/13 03:01:55;;;;;;;4.43;0.70;;;11.00;99.90;;;;;;5074735;28;20183;-47
2023/03/13 03:04:22;;;;;;;1.33;0.60;;;11.00;99.90;;;;;;5075112;28;20695;-45
2023/03/13 03:06:48;;;;;;;1.20;0.80;;;11.00;99.90;;;;;;5074891;28;20171;-48
2023/03/13 03:09:15;;;;;;;1.53;0.80;;;11.10;99.90;;;;;;5074850;28;20179;-48
2023/03/13 03:11:41;;;;;;;2.03;0.70;;;11.10;99.90;;;;;;5074636;28;20199;-49
2023/03/13 03:14:07;;;;;;;2.40;0.63;;;11.10;99.90;;;;;;5074480;28;20685;-47
2023/03/13 03:16:33;;;;;;;0.70;0.63;;;11.20;99.90;;;;;;5074440;28;20174;-47
2023/03/13 03:18:59;;;;;;;3.07;0.80;;;11.20;99.90;;;;;;5074755;28;20213;-47
2023/03/13 03:21:24;;;;;;;0.87;0.70;;;11.30;99.90;;;;;;5075636;28;20220;-44
2023/03/13 03:23:50;;;;;;;3.30;1.17;;;11.30;99.90;;;;;;5074648;28;20175;-47
2023/03/13 03:26:16;;;;;;;1.87;1.00;;;11.30;99.90;;;;;;5074319;28;20254;-45
2023/03/13 03:28:42;;;;;;;0.87;0.67;;;11.30;99.90;;;;;;5074310;28;20649;-48
2023/03/13 03:31:10;;;;;;;2.03;0.90;;;11.30;99.90;;;;;;5074464;28;20242;-49
2023/03/13 03:33:37;;;;;;;3.67;0.73;;;11.40;99.90;;;;;;5074138;28;20183;-48
2023/03/13 03:36:06;;;;;;;1.10;0.80;;;11.50;99.90;;;;;;5074097;28;20665;-48
2023/03/13 03:38:32;;;;;;;1.00;0.87;;;11.50;99.90;;;;;;5074383;28;20168;-46
2023/03/13 03:40:57;;;;;;;0.80;0.80;;;11.50;99.90;;;;;;5073962;28;20245;-46
2023/03/13 03:43:23;;;;;;;0.70;0.70;;;11.60;99.90;;;;;;5074208;28;20582;-50
2023/03/13 03:45:48;;;;;;;1.73;0.80;;;11.60;99.90;;;;;;5074222;28;20697;-47
2023/03/13 03:48:14;;;;;;;1.67;1.00;;;11.60;99.90;;;;;;5074161;28;20168;-46
2023/03/13 03:50:40;;;;;;;1.07;0.70;;;11.60;99.90;;;;;;5073778;28;20206;-46
2023/03/13 03:55:40;;;;;;;1.40;0.77;;;11.60;99.90;;;;;;5051865;28;20297;-46
2023/03/13 03:58:06;;;;;;;1.07;0.63;;;11.70;99.90;;;;;;5053890;28;20184;-48
2023/03/13 04:00:31;;;;;;;0.60;0.60;;;11.70;99.90;;;;;;5053929;28;20199;-48
2023/03/13 04:02:57;;;;;;;1.20;0.83;;;11.70;99.90;;;;;;5054263;28;20212;-46
2023/03/13 04:05:23;;;;;;;1.00;0.60;;;11.70;99.90;;;;;;5053519;28;20207;-46
2023/03/13 04:07:49;;;;;;;0.53;0.53;;;11.70;99.90;;;;;;5053691;28;20188;-48
2023/03/13 04:10:15;;;;;;;0.53;0.53;;;11.80;99.90;;;;;;5054527;28;20204;-47
2023/03/13 04:12:41;;;;;;;0.97;0.60;;;11.90;99.90;;;;;;5053660;28;20222;-48
2023/03/13 04:15:07;;;;;;;0.40;0.40;;;11.90;99.90;;;;;;5053483;28;20207;-47
2023/03/13 04:17:32;;;;;;;0.90;0.50;;;11.90;99.90;;;;;;5053584;28;20293;-47
2023/03/13 04:19:58;;;;;;;0.60;0.60;;;12.00;99.90;;;;;;5053346;28;20204;-47
2023/03/13 04:22:24;;;;;;;0.50;0.50;;;12.00;99.90;;;;;;5053933;28;20241;-46
2023/03/13 04:24:50;;;;;;;0.70;0.70;;;12.00;99.90;;;;;;5053647;28;20583;-46
2023/03/13 04:27:15;;;;;;;1.37;0.90;;;12.10;99.90;;;;;;5053705;28;20270;-48
2023/03/13 04:29:41;;;;;;;0.70;0.70;;;12.10;99.90;;;;;;5053358;28;20191;-46
2023/03/13 04:32:06;;;;;;;1.90;0.60;;;12.10;99.90;;;;;;5053263;28;20200;-47
2023/03/13 04:34:32;;;;;;;1.70;0.90;;;12.10;99.90;;;;;;5053259;28;20210;-46
2023/03/13 04:36:58;;;;;;;1.07;0.80;;;12.10;99.90;;;;;;5053533;28;20659;-47
2023/03/13 04:39:24;;;;;;;3.47;1.00;;;12.10;99.90;;;;;;5053265;28;20192;-48
2023/03/13 04:41:51;;;;;;;0.80;0.80;;;12.10;99.90;;;;;;5054157;28;20254;-47
2023/03/13 04:44:17;;;;;;;1.00;0.90;;;12.20;99.90;;;;;;5053872;28;20267;-45
2023/03/13 04:46:42;;;;;;;1.10;0.87;;;12.20;99.90;;;;;;5053141;28;20222;-48
2023/03/13 04:49:08;;;;;;;1.17;0.80;;;12.20;99.90;;;;;;5053053;28;20229;-49
2023/03/13 04:51:34;;;;;;;1.50;0.70;;;12.20;99.90;;;;;;5053085;28;20208;-47
2023/03/13 04:53:59;;;;;;;1.10;1.00;;;12.20;99.90;;;;;;5052910;28;20295;-47
2023/03/13 04:56:26;;;;;;;2.90;1.30;;;12.20;99.90;;;;;;5053318;28;20255;-46
2023/03/13 04:58:52;;;;;;;1.23;1.13;;;12.20;99.90;;;;;;5053237;28;20181;-47
2023/03/13 05:01:18;;;;;;;5.10;0.73;;;12.20;99.90;;;;;;5053075;28;20203;-48
2023/03/13 05:03:44;;;;;;;2.73;1.00;;;12.20;99.90;;;;;;5053305;28;20180;-48
2023/03/13 05:06:10;;;;;;;4.17;0.87;;;12.30;99.90;;;;;;5053072;28;20176;-46
2023/03/13 05:08:36;;;;;;;3.27;1.37;;;12.30;99.90;;;;;;5053317;28;20192;-49
2023/03/13 05:11:02;;;;;;;2.17;1.50;;;12.30;99.90;;;;;;5053068;28;20196;-47
2023/03/13 05:13:28;;;;;;;2.60;1.20;;;12.20;99.90;;;;;;5053081;28;20250;-48
2023/03/13 05:15:53;;;;;;;2.13;1.13;;;12.30;99.90;;;;;;5053575;28;20212;-48
2023/03/13 05:18:19;;;;;;;3.77;1.30;;;12.20;99.90;;;;;;5057189;28;20181;-48
2023/03/13 05:20:44;;;;;;;1.67;1.20;;;12.20;99.90;;;;;;5057010;28;20204;-48
2023/03/13 05:23:10;;;;;;;1.40;1.30;;;12.30;99.90;;;;;;5056910;28;20681;-48
2023/03/13 05:25:36;;;;;;;1.87;1.50;;;12.30;99.90;;;;;;5057004;28;20184;-47
2023/03/13 05:28:02;;;;;;;5.63;1.17;;;12.30;99.90;;;;;;5056722;28;20180;-49
2023/03/13 05:30:27;;;;;;;1.97;1.20;;;12.30;99.90;;;;;;5058535;28;20200;-46
2023/03/13 05:32:53;;;;;;;1.47;1.00;;;12.30;99.90;;;;;;5065736;28;20176;-50
2023/03/13 05:35:18;;;;;;;3.27;1.00;;;12.30;99.90;;;;;;5057901;28;20200;-48
2023/03/13 05:37:47;;;;;;;4.93;1.13;;;12.30;99.90;;;;;;5056826;28;20249;-45
2023/03/13 05:40:13;;;;;;;4.00;1.40;;;12.40;99.90;;;;;;5056608;28;20204;-47
2023/03/13 05:42:39;;;;;;;2.27;1.23;;;12.40;99.90;;;;;;5056479;28;20226;-47
2023/03/13 05:45:05;;;;;;;2.83;1.30;;;12.40;99.90;;;;;;5056310;28;20188;-46
2023/03/13 05:47:31;;;;;;;1.17;0.97;;;12.40;99.90;;;;;;5056609;28;20189;-47
2023/03/13 05:49:56;;;;;;;8.23;1.50;;;12.50;99.90;;;;;;5056135;28;20687;-48
2023/03/13 05:52:22;;;;;;;1.93;0.90;;;12.50;99.90;;;;;;5056309;28;20552;-45
2023/03/13 05:54:48;;;;;;;4.13;1.20;;;12.50;99.90;;;;;;5056030;28;20216;-46
2023/03/13 05:57:13;;;;;;;1.10;0.97;;;12.50;99.90;;;;;;5056334;28;20181;-46
2023/03/13 05:59:39;;;;;;;2.30;1.20;;;12.50;99.90;;;;;;5055986;28;20188;-47
2023/03/13 06:02:04;;;;;;;2.23;1.20;;;12.60;99.90;;;;;;5055921;28;20200;-47
2023/03/13 06:04:30;;;;;;;2.00;1.10;;;12.60;99.90;;;;;;5056212;28;20186;-46
2023/03/13 06:06:56;;;;;;;2.97;1.07;;;12.60;99.90;;;;;;5055952;28;20184;-47
2023/03/13 06:09:21;;;;;;;2.47;1.20;;;12.60;99.90;;;;;;5055936;28;20227;-47
2023/03/13 06:11:47;;;;;;;2.33;0.93;;;12.60;99.90;;;;;;5056017;28;20204;-48
2023/03/13 06:14:12;;;;;;;2.37;1.13;;;12.60;99.90;;;;;;5055695;28;20330;-47
2023/03/13 06:16:38;;;;;;;2.90;1.40;;;12.70;99.90;;;;;;5055795;28;20204;-47
2023/03/13 06:19:03;;;;;;;1.77;1.30;;;12.70;99.90;;;;;;5055658;28;20180;-46
2023/03/13 06:21:29;;;;;;;4.07;1.23;;;12.70;99.90;;;;;;5055546;28;20200;-48
2023/03/13 06:23:55;;;;;;;2.07;1.13;;;12.70;99.90;;;;;;5055934;28;20243;-47
2023/03/13 06:26:23;;;;;;;1.60;1.27;;;12.70;99.90;;;;;;5055714;28;20187;-47
2023/03/13 06:28:49;;;;;;;1.53;1.43;;;12.80;99.90;;;;;;5055508;28;20593;-46
2023/03/13 06:31:15;;;;;;;2.57;1.33;;;12.80;99.90;;;;;;5056068;28;20762;-48
2023/03/13 06:33:40;;;;;;;4.93;1.67;;;12.80;99.90;;;;;;5055785;28;20540;-49
2023/03/13 06:36:06;;;;;;;3.20;1.40;;;12.80;99.90;;;;;;5055424;28;20198;-47
2023/03/13 06:38:32;;;;;;;2.23;1.37;;;12.80;99.90;;;;;;5055542;28;20180;-46
2023/03/13 06:40:58;;;;;;;2.07;0.93;;;12.80;99.90;;;;;;5055485;28;20726;-47
2023/03/13 06:43:24;;;;;;;4.53;2.00;;;12.80;99.90;;;;;;5055620;28;20216;-48
2023/03/13 06:45:49;;;;;;;2.83;1.60;;;12.90;99.90;;;;;;5055603;28;20188;-46
2023/03/13 06:48:15;;;;;;;1.93;1.43;;;12.90;99.90;;;;;;5055519;28;20207;-48
2023/03/13 06:50:41;;;;;;;2.43;1.53;;;12.90;99.90;;;;;;5070512;28;20212;-48
2023/03/13 06:53:14;;;;;;;3.47;1.67;;;12.90;99.90;;;;;;5055502;28;20210;-48
2023/03/13 06:55:40;;;;;;;2.83;1.47;;;13.00;99.90;;;;;;5055140;28;20230;-46
2023/03/13 06:58:05;;;;;;;3.90;1.43;;;13.00;99.90;;;;;;5055289;28;20259;-46
2023/03/13 07:00:31;;;;;;;6.80;1.70;;;13.00;99.90;;;;;;5055482;28;20204;-48
2023/03/13 07:02:56;;;;;;;4.97;1.73;;;13.00;99.90;;;;;;5055024;28;20185;-46
2023/03/13 07:05:22;;;;;;;3.00;1.70;;;13.00;99.90;;;;;;5055337;28;20188;-48
2023/03/13 07:07:47;;;;;;;2.43;1.30;;;13.00;99.90;;;;;;5055053;28;20185;-47
2023/03/13 07:10:13;;;;;;;5.50;1.77;;;13.00;99.90;;;;;;5055364;28;20214;-47
2023/03/13 07:12:38;;;;;;;6.30;2.00;;;13.10;99.90;;;;;;5055338;28;20208;-47
2023/03/13 07:15:05;;;;;;;4.37;2.00;;;13.10;99.90;;;;;;5054988;28;20843;-48
2023/03/13 07:17:30;;;;;;;4.73;1.90;;;13.10;99.90;;;;;;5055336;28;20632;-49
2023/03/13 07:19:56;;;;;;;4.90;1.83;;;13.10;99.90;;;;;;5055158;28;20180;-49
2023/03/13 07:22:21;;;;;;;5.13;1.97;;;13.10;99.90;;;;;;5054831;28;20177;-48
2023/03/13 07:24:47;;;;;;;5.50;1.90;;;13.20;99.90;;;;;;5053701;28;20648;-48
2023/03/13 07:27:13;;;;;;;2.83;1.77;;;13.20;99.90;;;;;;5055170;28;20182;-47
2023/03/13 07:29:38;;;;;;;6.90;2.53;;;13.30;99.90;;;;;;5054756;28;20180;-47
2023/03/13 07:32:04;;;;;;;6.13;1.87;;;13.30;99.90;;;;;;5055026;28;20215;-47
2023/03/13 07:34:30;;;;;;;5.03;1.80;;;13.40;99.90;;;;;;5054549;28;20208;-49
2023/03/13 07:36:56;;;;;;;6.37;2.30;;;13.40;99.90;;;;;;5054447;28;20190;-49
2023/03/13 07:39:21;;;;;;;5.93;1.90;;;13.40;99.90;;;;;;5054762;28;20204;-50
2023/03/13 07:41:47;;;;;;;7.20;2.43;;;13.40;99.90;;;;;;5054659;28;20192;-47
2023/03/13 07:44:12;;;;;;;3.27;1.77;;;13.40;99.90;;;;;;5054723;28;20191;-49
2023/03/13 07:46:38;;;;;;;2.90;2.00;;;13.40;99.90;;;;;;5054764;28;20180;-49
2023/03/13 07:49:03;;;;;;;5.87;2.23;;;13.40;99.90;;;;;;5054304;28;20522;-49
2023/03/13 07:51:29;;;;;;;5.30;2.03;;;13.40;99.90;;;;;;5054471;28;20204;-47
2023/03/13 07:53:54;;;;;;;5.50;2.10;;;13.40;99.90;;;;;;5054183;28;20212;-47
2023/03/13 07:56:22;;;;;;;5.33;1.97;;;13.40;99.90;;;;;;5054073;28;20172;-50
2023/03/13 07:58:48;;;;;;;7.00;2.10;;;13.50;99.90;;;;;;5054121;28;20254;-48
2023/03/13 08:01:15;;;;;;;2.37;1.57;;;13.50;99.90;;;;;;5053950;28;20200;-47
2023/03/13 08:03:41;;;;;;;7.00;2.33;;;13.50;99.90;;;;;;5054369;28;20251;-48
2023/03/13 08:06:09;;;;;;;7.37;2.17;;;13.50;99.90;;;;;;5054595;28;20176;-50
2023/03/13 08:08:36;;;;;;;6.90;2.20;;;13.60;99.90;;;;;;5052634;28;20221;-48
2023/03/13 08:11:10;;;;;;;7.50;2.00;;;13.60;99.90;;;;;;5053853;28;20220;-49
2023/03/13 08:13:36;;;;;;;6.30;2.17;;;13.70;99.90;;;;;;5053661;28;20171;-49
2023/03/13 08:16:17;;;;;;;4.40;2.00;;;13.70;99.90;;;;;;5053757;28;20550;-47
2023/03/13 08:18:45;;;;;;;5.00;1.77;;;13.70;99.90;;;;;;5054058;28;20160;-49
2023/03/13 08:21:20;;;;;;;8.67;2.33;;;13.70;99.90;;;;;;5053572;28;20196;-49
2023/03/13 08:23:46;;;;;;;3.17;1.40;;;13.70;99.90;;;;;;5054047;28;20202;-48
2023/03/13 08:26:16;;;;;;;3.83;2.37;;;13.70;99.90;;;;;;5053863;28;20176;-48
2023/03/13 08:28:44;;;;;;;4.67;1.90;;;13.80;99.90;;;;;;5053808;28;20184;-48
2023/03/13 08:31:16;;;;;;;5.77;1.77;;;13.80;99.90;;;;;;5056840;28;20200;-50
2023/03/13 08:33:42;;;;;;;3.30;1.50;;;13.70;99.90;;;;;;5055680;28;20168;-48
2023/03/13 08:36:16;;;;;;;10.33;2.20;;;13.70;99.90;;;;;;5053347;28;20644;-47
2023/03/13 08:38:43;;;;;;;4.63;1.80;;;13.70;99.90;;;;;;5054492;28;20176;-47
2023/03/13 08:41:10;;;;;;;7.93;2.63;;;13.70;99.90;;;;;;5053425;28;20196;-48
2023/03/13 08:43:36;;;;;;;5.83;2.50;;;13.70;99.90;;;;;;5053246;28;20537;-47
2023/03/13 08:46:01;;;;;;;6.60;2.33;;;13.70;99.90;;;;;;5053480;28;20172;-46
2023/03/13 08:48:27;;;;;;;5.90;2.13;;;13.60;99.90;;;;;;5053540;28;20532;-47
2023/03/13 08:51:06;;;;;;;4.90;2.23;;;13.70;99.90;;;;;;5055462;28;20302;-47
2023/03/13 08:53:32;;;;;;;5.93;1.87;;;13.60;99.90;;;;;;5057192;28;20168;-48
2023/03/13 08:55:58;;;;;;;5.63;2.37;;;13.60;99.90;;;;;;5059105;28;20172;-47
2023/03/13 08:58:24;;;;;;;7.90;2.40;;;13.60;99.90;;;;;;5057933;28;20184;-46
2023/03/13 09:00:50;;;;;;;5.17;2.20;;;13.60;99.90;;;;;;5057310;28;20751;-46
2023/03/13 09:03:16;;;;;;;5.30;2.17;;;13.60;99.90;;;;;;5057101;28;20259;-46
2023/03/13 09:05:42;;;;;;;2.40;1.37;;;13.70;99.90;;;;;;5057349;28;20290;-46
2023/03/13 09:08:08;;;;;;;8.50;2.23;;;13.70;99.90;;;;;;5057289;28;20188;-48
2023/03/13 09:10:35;;;;;;;8.47;2.40;;;13.80;99.90;;;;;;5057002;28;20254;-48
2023/03/13 09:13:01;;;;;;;6.17;2.30;;;13.80;99.90;;;;;;5057022;28;20256;-49
2023/03/13 09:15:26;;;;;;;3.83;1.57;;;13.90;99.90;;;;;;5056877;28;20287;-47
2023/03/13 09:17:52;;;;;;;6.43;2.37;;;14.00;99.90;;;;;;5057108;28;20696;-47
2023/03/13 09:20:18;;;;;;;5.07;1.80;;;14.00;99.90;;;;;;5056948;28;20204;-46
2023/03/13 09:22:44;;;;;;;4.43;2.27;;;14.20;99.90;;;;;;5056768;28;20707;-49
2023/03/13 09:25:11;;;;;;;3.57;1.67;;;14.20;99.90;;;;;;5056941;28;20237;-48
2023/03/13 09:27:36;;;;;;;4.47;2.10;;;14.30;99.90;;;;;;5056851;28;20180;-48
2023/03/13 09:30:02;;;;;;;5.90;1.93;;;14.30;99.90;;;;;;5056748;28;20588;-48
2023/03/13 09:32:28;;;;;;;4.73;1.67;;;14.30;99.90;;;;;;5056584;28;20259;-46
2023/03/13 09:34:54;;;;;;;2.43;1.43;;;14.30;99.90;;;;;;5056432;28;20644;-48
2023/03/13 09:37:20;;;;;;;3.07;1.53;;;14.30;99.90;;;;;;5056828;28;20631;-49
2023/03/13 09:39:47;;;;;;;4.93;2.10;;;14.40;99.90;;;;;;5056386;28;20187;-47
2023/03/13 09:42:38;;;;;;;6.60;1.57;;;14.50;99.90;;;;;;5056374;28;20184;-47
2023/03/13 09:45:21;;;;;;;5.87;1.70;;;14.60;99.90;;;;;;5056997;28;20168;-47
2023/03/13 09:47:51;;;;;;;2.57;1.57;;;14.90;99.90;;;;;;5056700;28;20180;-47
2023/03/13 09:50:29;;;;;;;2.93;1.70;;;15.10;99.90;;;;;;5056234;28;20219;-47
2023/03/13 09:53:01;;;;;;;3.47;1.63;;;15.20;99.90;;;;;;5056403;28;20335;-48
2023/03/13 09:55:30;;;;;;;4.77;1.30;;;15.30;99.90;;;;;;5056174;28;20574;-49
2023/03/13 09:58:03;;;;;;;3.00;1.23;;;15.40;99.90;;;;;;5077788;22;20223;-49
2023/03/13 10:00:39;;;;;;;1.50;1.40;;;15.40;99.90;;;;;;5076691;28;20553;-50
2023/03/13 10:03:11;;;;;;;2.10;1.27;;;15.50;99.90;;;;;;5057320;28;20224;-47
2023/03/13 10:05:45;;;;;;;1.67;1.57;;;15.40;99.90;;;;;;5076287;28;20163;-45
2023/03/13 10:08:29;;;;;;;2.57;1.10;;;15.50;99.90;;;;;;5076215;28;20172;-47
2023/03/13 10:11:02;;;;;;;3.43;1.57;;;15.60;99.90;;;;;;5075769;28;20229;-47
2023/03/13 10:13:40;;;;;;;5.43;1.63;;;15.70;99.90;;;;;;5076068;28;20198;-46
2023/03/13 10:16:21;;;;;;;1.63;1.23;;;15.70;99.90;;;;;;5076060;28;20669;-47
2023/03/13 10:18:52;;;;;;;3.13;1.50;;;15.70;99.90;;;;;;5075907;28;20171;-49
2023/03/13 10:21:21;;;;;;;4.67;1.60;;;15.70;99.90;;;;;;5076117;28;20537;-48
2023/03/13 10:23:52;;;;;;;2.17;1.10;;;15.70;99.90;;;;;;5076563;28;20214;-53
2023/03/13 10:26:26;;;;;;;1.57;1.10;;;15.80;99.90;;;;;;5075872;28;20168;-53
2023/03/13 10:28:54;;;;;;;2.57;1.20;;;15.90;99.90;;;;;;5075574;28;20159;-55
2023/03/13 10:31:36;;;;;;;2.00;1.33;;;16.10;99.90;;;;;;5075456;28;20198;-54
2023/03/13 10:34:10;;;;;;;2.57;0.90;;;16.20;99.90;;;;;;5075323;28;20195;-55
2023/03/13 10:36:46;;;;;;;1.13;1.00;;;16.30;99.90;;;;;;5075489;28;20532;-53
2023/03/13 10:39:20;;;;;;;3.80;0.90;;;16.40;99.90;;;;;;5075643;28;20241;-54
2023/03/13 10:41:48;;;;;;;2.17;1.60;;;16.50;99.90;;;;;;5075262;28;20237;-55
2023/03/13 10:44:20;;;;;;;3.53;1.53;;;16.60;99.90;;;;;;5075460;28;20233;-54
2023/03/13 10:46:47;;;;;;;1.50;1.00;;;16.60;99.90;;;;;;5075157;28;20175;-54
2023/03/13 10:49:23;;;;;;;1.90;0.87;;;16.70;99.90;;;;;;5075361;28;20183;-53
2023/03/13 10:51:54;;;;;;;2.93;1.60;;;16.70;99.90;;;;;;5075289;28;20674;-54
2023/03/13 10:54:29;;;;;;;1.27;1.17;;;16.80;99.90;;;;;;5075109;28;20188;-55
2023/03/13 10:57:16;;;;;;;2.87;1.30;;;16.80;99.90;;;;;;5076176;28;20561;-54
2023/03/13 10:59:44;;;;;;;1.03;0.90;;;16.80;99.90;;;;;;5074935;28;20168;-54
2023/03/13 11:02:29;;;;;;;4.30;1.57;;;16.90;99.90;;;;;;5074786;28;20215;-54
2023/03/13 11:04:56;;;;;;;1.87;0.90;;;16.90;99.90;;;;;;5074769;28;20183;-54
2023/03/13 11:07:37;;;;;;;1.63;1.13;;;17.00;99.90;;;;;;5075020;28;20188;-50
2023/03/13 11:10:22;;;;;;;1.67;0.87;;;17.00;99.90;;;;;;5074946;28;20635;-50
2023/03/13 11:12:53;;;;;;;1.33;0.97;;;17.00;99.90;;;;;;5074695;28;20616;-52
2023/03/13 11:15:45;;;;;;;2.33;1.20;;;17.00;99.90;;;;;;5074095;28;20527;-52
2023/03/13 11:19:01;;;;;;;2.33;1.30;;;17.00;99.90;;;;;;5074776;28;20172;-53
2023/03/13 11:21:36;;;;;;;1.43;0.80;;;17.10;99.90;;;;;;5040617;28;20214;-53
2023/03/13 11:24:13;;;;;;;1.40;1.00;;;17.00;99.90;;;;;;5074908;28;20615;-51
2023/03/13 11:26:57;;;;;;;1.30;0.97;;;16.90;99.90;;;;;;5075341;28;20163;-52
2023/03/13 11:29:50;;;;;;;3.23;1.13;;;16.90;99.90;;;;;;5056419;28;20172;-50
2023/03/13 11:32:27;;;;;;;2.77;1.00;;;16.90;99.90;;;;;;5074692;28;20209;-51
2023/03/13 11:34:59;;;;;;;1.27;0.80;;;17.00;99.90;;;;;;5074468;28;20188;-52
2023/03/13 11:37:27;;;;;;;2.07;0.90;;;17.00;99.90;;;;;;5074459;28;20162;-52
2023/03/13 11:40:11;;;;;;;0.97;0.90;;;17.00;99.90;;;;;;5074058;28;20657;-51
2023/03/13 11:43:05;;;;;;;0.80;0.80;;;17.00;99.90;;;;;;5056187;28;20171;-51
2023/03/13 11:45:58;;;;;;;0.80;0.80;;;17.10;99.90;;;;;;5060913;28;20206;-52
2023/03/13 11:48:51;;;;;;;1.67;1.00;;;17.20;99.90;;;;;;5074206;28;20164;-51
2023/03/13 11:51:48;;;;;;;1.27;1.10;;;17.30;99.90;;;;;;5074003;28;20241;-51
2023/03/13 11:54:49;;;;;;;1.17;1.00;;;17.40;99.90;;;;;;5074143;28;20196;-52
2023/03/13 11:57:28;;;;;;;1.13;0.93;;;17.50;99.90;;;;;;5074134;28;20523;-52
2023/03/13 11:59:56;;;;;;;4.20;1.10;;;17.50;99.90;;;;;;5074013;28;20156;-51
2023/03/13 12:02:38;;;;;;;2.33;0.80;;;17.50;99.90;;;;;;5073870;28;20214;-52
2023/03/13 12:05:12;;;;;;;1.20;0.80;;;17.60;99.90;;;;;;5074184;28;20253;-50
2023/03/13 12:07:49;;;;;;;1.67;1.00;;;17.60;99.90;;;;;;5073983;28;20523;-52
2023/03/13 12:10:20;;;;;;;2.03;0.97;;;17.70;99.90;;;;;;5074288;28;20210;-51
2023/03/13 12:12:52;;;;;;;1.40;0.90;;;17.70;99.90;;;;;;5074247;28;20160;-50
2023/03/13 12:15:53;;;;;;;2.33;0.80;;;17.70;99.90;;;;;;5073859;28;20248;-49
2023/03/13 12:18:26;;;;;;;2.27;0.90;;;17.70;99.90;;;;;;5073748;28;20159;-49
2023/03/13 12:21:17;;;;;;;0.90;0.67;;;17.70;99.90;;;;;;5073791;28;20724;-50
2023/03/13 12:23:51;;;;;;;1.73;1.00;;;17.80;99.90;;;;;;5074081;28;20163;-49
2023/03/13 12:26:25;;;;;;;1.43;1.00;;;17.80;99.90;;;;;;5073435;28;20178;-50
2023/03/13 12:29:04;;;;;;;2.10;0.90;;;17.80;99.90;;;;;;5073528;28;20164;-51
2023/03/13 12:31:38;;;;;;;1.87;0.70;;;17.90;99.90;;;;;;5073719;28;20283;-49
2023/03/13 12:34:18;;;;;;;0.70;0.70;;;17.90;99.90;;;;;;5073642;28;20199;-51
2023/03/13 12:37:25;;;;;;;1.43;0.80;;;18.00;99.90;;;;;;5073646;28;20597;-49
2023/03/13 12:39:57;;;;;;;1.90;0.70;;;17.90;99.90;;;;;;5073683;28;20159;-48
2023/03/13 12:42:39;;;;;;;1.70;0.70;;;17.90;99.90;;;;;;5073463;28;20619;-49
2023/03/13 12:45:07;;;;;;;0.67;0.67;;;17.90;99.90;;;;;;5055524;28;20647;-51
2023/03/13 12:47:33;;;;;;;1.47;0.80;;;17.90;99.90;;;;;;5073649;28;20196;-51
2023/03/13 12:50:23;;;;;;;1.53;0.80;;;18.00;99.90;;;;;;5073295;28;20192;-50
2023/03/13 12:53:15;;;;;;;2.73;0.90;;;18.10;99.90;;;;;;5073462;28;20534;-51
2023/03/13 12:56:12;;;;;;;4.30;0.97;;;18.10;99.90;;;;;;5073129;28;20208;-51
2023/03/13 12:58:44;;;;;;;2.70;0.90;;;18.00;99.90;;;;;;5073032;28;20572;-49
2023/03/13 13:01:18;;;;;;;3.10;1.33;;;18.00;99.90;;;;;;5073329;28;20214;-51